Time;durP1;ratioP1;P1;durP2;ratioP2;P2;SDS_P1;SDS_P2;PMS_P1;PMS_P2;Temp;Humidity;BMP_temperature;BMP_pressure;BME280_temperature;BME280_humidity;BME280_pressure;Samples;Min_cycle;Max_cycle;Signal;HPM_P1;HPM_P2
2024/02/24 00:00:31;;;;;;;39.25;12.23;;;;;;;;;;5007588;28;20196;-58
2024/02/24 00:02:58;;;;;;;32.15;12.55;;;;;;;;;;5016186;28;20085;-58
2024/02/24 00:05:27;;;;;;;34.63;13.38;;;;;;;;;;5025832;28;20053;-51
2024/02/24 00:07:54;;;;;;;30.55;12.18;;;;;;;;;;5024831;28;20018;-56
2024/02/24 00:10:21;;;;;;;40.47;13.45;;;;;;;;;;5026905;28;20017;-53
2024/02/24 00:12:47;;;;;;;40.55;14.95;;;;;;;;;;5025518;28;20274;-55
2024/02/24 00:15:14;;;;;;;40.13;14.90;;;;;;;;;;5026994;28;20104;-53
2024/02/24 00:17:41;;;;;;;45.92;16.42;;;;;;;;;;5025614;28;20067;-50
2024/02/24 00:20:08;;;;;;;38.22;14.48;;;;;;;;;;5025894;28;20025;-51
2024/02/24 00:22:36;;;;;;;44.85;14.48;;;;;;;;;;5026678;28;20018;-52
2024/02/24 00:25:02;;;;;;;45.67;15.68;;;;;;;;;;5026841;28;20025;-52
2024/02/24 00:27:29;;;;;;;50.35;14.25;;;;;;;;;;5024829;28;20029;-48
2024/02/24 00:29:56;;;;;;;42.25;13.73;;;;;;;;;;5024978;28;20230;-51
2024/02/24 00:32:22;;;;;;;38.85;13.80;;;;;;;;;;5024747;28;20042;-49
2024/02/24 00:34:49;;;;;;;35.65;13.80;;;;;;;;;;5023854;28;20034;-49
2024/02/24 00:37:16;;;;;;;36.33;12.88;;;;;;;;;;5023713;28;20219;-49
2024/02/24 00:39:42;;;;;;;34.03;13.52;;;;;;;;;;5024836;28;20072;-46
2024/02/24 00:42:09;;;;;;;27.17;12.23;;;;;;;;;;5026169;28;20024;-50
2024/02/24 00:44:35;;;;;;;29.15;12.70;;;;;;;;;;5026918;28;20033;-51
2024/02/24 00:47:02;;;;;;;25.35;11.80;;;;;;;;;;5026535;28;20041;-48
2024/02/24 00:49:32;;;;;;;33.65;14.00;;;;;;;;;;5026651;28;20310;-47
2024/02/24 00:51:58;;;;;;;61.55;24.75;;;;;;;;;;5023684;28;20026;-50
2024/02/24 00:54:25;;;;;;;39.28;17.58;;;;;;;;;;5026001;28;20018;-45
2024/02/24 00:56:53;;;;;;;30.48;15.27;;;;;;;;;;5025868;28;20090;-48
2024/02/24 00:59:19;;;;;;;35.92;13.80;;;;;;;;;;5025819;28;20014;-43
2024/02/24 01:01:46;;;;;;;33.55;13.90;;;;;;;;;;5025058;28;20022;-46
2024/02/24 01:04:13;;;;;;;30.40;12.75;;;;;;;;;;5017147;28;20049;-49
2024/02/24 01:06:39;;;;;;;25.80;12.27;;;;;;;;;;5025049;28;20054;-49
2024/02/24 01:09:06;;;;;;;33.72;12.70;;;;;;;;;;5008221;28;20240;-46
2024/02/24 01:11:33;;;;;;;233.25;24.45;;;;;;;;;;5026145;28;20030;-45
2024/02/24 01:13:59;;;;;;;35.15;12.68;;;;;;;;;;5025665;28;20022;-51
2024/02/24 01:16:26;;;;;;;51.83;13.82;;;;;;;;;;5025994;28;20302;-50
2024/02/24 01:18:53;;;;;;;39.28;12.50;;;;;;;;;;5025340;28;20037;-48
2024/02/24 01:21:19;;;;;;;31.45;12.48;;;;;;;;;;5025662;28;20029;-52
2024/02/24 01:23:46;;;;;;;32.03;11.82;;;;;;;;;;5025273;28;20021;-50
2024/02/24 01:26:12;;;;;;;27.23;12.73;;;;;;;;;;5025707;28;20048;-45
2024/02/24 01:28:39;;;;;;;20.45;11.32;;;;;;;;;;5025235;28;20017;-50
2024/02/24 01:31:05;;;;;;;24.98;11.63;;;;;;;;;;5025818;28;20101;-47
2024/02/24 01:33:32;;;;;;;30.38;12.13;;;;;;;;;;5025204;28;20033;-44
2024/02/24 01:35:59;;;;;;;28.92;12.27;;;;;;;;;;5025547;28;20369;-50
2024/02/24 01:38:25;;;;;;;47.88;13.27;;;;;;;;;;5025247;28;20021;-50
2024/02/24 01:40:52;;;;;;;31.02;11.73;;;;;;;;;;5025113;28;20053;-51
2024/02/24 01:43:25;;;;;;;31.65;12.00;;;;;;;;;;5025007;28;20017;-50
2024/02/24 01:45:53;;;;;;;26.08;11.52;;;;;;;;;;5025320;28;20018;-50
2024/02/24 01:48:19;;;;;;;19.23;11.52;;;;;;;;;;5024818;28;20024;-46
2024/02/24 01:50:52;;;;;;;16.48;11.13;;;;;;;;;;5025352;28;20030;-44
2024/02/24 01:53:19;;;;;;;18.45;10.98;;;;;;;;;;5025123;28;20025;-43
2024/02/24 01:55:46;;;;;;;17.95;11.40;;;;;;;;;;5025204;28;20302;-45
2024/02/24 01:58:13;;;;;;;15.02;10.13;;;;;;;;;;5024969;28;20089;-51
2024/02/24 02:00:40;;;;;;;14.63;10.43;;;;;;;;;;5007408;28;20218;-46
2024/02/24 02:03:07;;;;;;;17.13;10.70;;;;;;;;;;5024688;28;20025;-48
2024/02/24 02:05:34;;;;;;;21.02;11.40;;;;;;;;;;5024750;28;20046;-45
2024/02/24 02:08:01;;;;;;;16.58;10.10;;;;;;;;;;5024778;28;20072;-54
2024/02/24 02:10:42;;;;;;;18.98;10.80;;;;;;;;;;5024843;28;20034;-44
2024/02/24 02:13:09;;;;;;;18.63;10.25;;;;;;;;;;5024632;28;20022;-50
2024/02/24 02:15:36;;;;;;;15.32;10.20;;;;;;;;;;5024635;28;20033;-47
2024/02/24 02:18:03;;;;;;;17.55;10.48;;;;;;;;;;5024513;28;20025;-47
2024/02/24 02:20:30;;;;;;;15.38;10.25;;;;;;;;;;5024765;28;20055;-49
2024/02/24 02:22:56;;;;;;;13.65;9.50;;;;;;;;;;5024437;28;20018;-43
2024/02/24 02:25:23;;;;;;;20.23;10.30;;;;;;;;;;5024726;28;20093;-50
2024/02/24 02:27:49;;;;;;;18.02;10.05;;;;;;;;;;5024422;28;20013;-47
2024/02/24 02:30:16;;;;;;;17.10;9.95;;;;;;;;;;5024418;28;20033;-48
2024/02/24 02:32:43;;;;;;;13.95;9.45;;;;;;;;;;5024398;28;20026;-48
2024/02/24 02:35:10;;;;;;;18.65;9.60;;;;;;;;;;5024489;28;20332;-49
2024/02/24 02:37:37;;;;;;;12.43;9.27;;;;;;;;;;5024232;28;20028;-52
2024/02/24 02:40:03;;;;;;;22.13;9.52;;;;;;;;;;5024228;28;20038;-49
2024/02/24 02:42:30;;;;;;;13.35;8.75;;;;;;;;;;5024069;28;20021;-45
2024/02/24 02:44:57;;;;;;;14.20;9.40;;;;;;;;;;5024207;28;20021;-48
2024/02/24 02:47:23;;;;;;;15.48;9.48;;;;;;;;;;5024020;28;20320;-52
2024/02/24 02:49:50;;;;;;;16.75;9.52;;;;;;;;;;5024457;28;20241;-48
2024/02/24 02:52:16;;;;;;;15.63;9.18;;;;;;;;;;5023135;28;20022;-50
2024/02/24 02:54:43;;;;;;;23.25;9.32;;;;;;;;;;5022181;28;20026;-47
2024/02/24 02:57:09;;;;;;;17.55;9.65;;;;;;;;;;5021941;28;20036;-50
2024/02/24 02:59:36;;;;;;;15.80;9.45;;;;;;;;;;5022212;28;20033;-48
2024/02/24 03:02:03;;;;;;;12.27;8.85;;;;;;;;;;5022138;28;20018;-46
2024/02/24 03:04:29;;;;;;;18.67;9.80;;;;;;;;;;5022345;28;20241;-45
2024/02/24 03:06:56;;;;;;;13.45;9.35;;;;;;;;;;5022244;28;20068;-52
2024/02/24 03:09:22;;;;;;;13.10;9.00;;;;;;;;;;5022274;28;20081;-53
2024/02/24 03:11:49;;;;;;;14.40;9.00;;;;;;;;;;5023655;28;20021;-48
2024/02/24 03:14:15;;;;;;;18.10;9.45;;;;;;;;;;5024055;28;20025;-50
2024/02/24 03:16:42;;;;;;;13.07;9.45;;;;;;;;;;5023794;28;20060;-51
2024/02/24 03:19:09;;;;;;;12.63;9.07;;;;;;;;;;5023699;28;20230;-53
2024/02/24 03:21:36;;;;;;;15.80;9.63;;;;;;;;;;5024203;28;20025;-51
2024/02/24 03:24:03;;;;;;;11.25;8.60;;;;;;;;;;5024211;28;20092;-51
2024/02/24 03:26:29;;;;;;;12.93;9.07;;;;;;;;;;5024318;28;20050;-46
2024/02/24 03:28:56;;;;;;;14.27;8.75;;;;;;;;;;5024741;28;20018;-47
2024/02/24 03:31:23;;;;;;;13.98;9.45;;;;;;;;;;5024621;28;20148;-51
2024/02/24 03:33:49;;;;;;;13.00;8.77;;;;;;;;;;5023821;28;20178;-46
2024/02/24 03:36:17;;;;;;;11.25;8.65;;;;;;;;;;5024599;28;20037;-50
2024/02/24 03:38:44;;;;;;;14.77;9.50;;;;;;;;;;5023955;28;20388;-51
2024/02/24 03:41:10;;;;;;;17.92;9.02;;;;;;;;;;5024171;28;20206;-49
2024/02/24 03:43:38;;;;;;;17.58;8.98;;;;;;;;;;5023799;28;20021;-46
2024/02/24 03:46:05;;;;;;;11.20;8.60;;;;;;;;;;5024113;28;20026;-46
2024/02/24 03:48:32;;;;;;;13.98;8.60;;;;;;;;;;5024297;28;20021;-43
2024/02/24 03:51:00;;;;;;;11.93;8.90;;;;;;;;;;5024299;28;20030;-52
2024/02/24 03:53:28;;;;;;;11.57;8.80;;;;;;;;;;5024350;28;20018;-46
2024/02/24 03:55:55;;;;;;;11.98;8.55;;;;;;;;;;5024645;28;20041;-50
2024/02/24 03:58:24;;;;;;;13.82;9.30;;;;;;;;;;5023882;28;20024;-46
2024/02/24 04:00:51;;;;;;;15.80;8.82;;;;;;;;;;5023855;28;20036;-43
2024/02/24 04:03:18;;;;;;;14.63;9.48;;;;;;;;;;5024068;28;20014;-50
2024/02/24 04:05:46;;;;;;;13.38;8.75;;;;;;;;;;5023965;28;20049;-45
2024/02/24 04:08:13;;;;;;;12.50;9.30;;;;;;;;;;5023556;28;20052;-46
2024/02/24 04:10:40;;;;;;;16.58;9.25;;;;;;;;;;5026471;28;20219;-50
2024/02/24 04:13:07;;;;;;;14.38;8.98;;;;;;;;;;5027345;28;20025;-51
2024/02/24 04:15:33;;;;;;;12.05;9.30;;;;;;;;;;5027338;28;20032;-51
2024/02/24 04:18:00;;;;;;;12.13;9.43;;;;;;;;;;5027382;28;20026;-51
2024/02/24 04:20:26;;;;;;;14.15;9.38;;;;;;;;;;5027671;28;20029;-53
2024/02/24 04:22:53;;;;;;;12.85;9.13;;;;;;;;;;5027098;28;20021;-49
2024/02/24 04:25:20;;;;;;;10.45;9.00;;;;;;;;;;5027457;28;20033;-49
2024/02/24 04:27:46;;;;;;;14.13;9.02;;;;;;;;;;5027262;28;20038;-50
2024/02/24 04:30:13;;;;;;;13.73;9.70;;;;;;;;;;5027212;28;20030;-55
2024/02/24 04:32:39;;;;;;;12.95;9.60;;;;;;;;;;5027294;28;20036;-50
2024/02/24 04:35:07;;;;;;;14.10;9.80;;;;;;;;;;5027178;28;20089;-53
2024/02/24 04:37:33;;;;;;;10.65;9.02;;;;;;;;;;5027132;28;20209;-52
2024/02/24 04:40:00;;;;;;;16.65;9.80;;;;;;;;;;5027225;28;20079;-50
2024/02/24 04:42:26;;;;;;;15.05;9.77;;;;;;;;;;5027088;28;20037;-47
2024/02/24 04:44:53;;;;;;;15.75;9.57;;;;;;;;;;5027163;28;20198;-52
2024/02/24 04:47:22;;;;;;;11.60;8.70;;;;;;;;;;5026990;28;20018;-51
2024/02/24 04:49:49;;;;;;;12.60;9.73;;;;;;;;;;5026905;28;20040;-49
2024/02/24 04:52:16;;;;;;;11.15;8.90;;;;;;;;;;5026724;28;20045;-53
2024/02/24 04:54:43;;;;;;;14.43;8.98;;;;;;;;;;5026621;28;20093;-45
2024/02/24 04:57:09;;;;;;;15.30;9.50;;;;;;;;;;5027063;28;20076;-50
2024/02/24 04:59:36;;;;;;;10.20;9.18;;;;;;;;;;5027000;28;20032;-49
2024/02/24 05:02:02;;;;;;;11.77;9.10;;;;;;;;;;5026494;28;20233;-46
2024/02/24 05:04:29;;;;;;;15.13;9.73;;;;;;;;;;5026704;28;20025;-52
2024/02/24 05:06:56;;;;;;;15.52;9.70;;;;;;;;;;5026612;28;20033;-47
2024/02/24 05:09:22;;;;;;;13.98;9.13;;;;;;;;;;5026458;28;20041;-46
2024/02/24 05:11:49;;;;;;;11.95;9.05;;;;;;;;;;5026459;28;20050;-51
2024/02/24 05:14:19;;;;;;;13.82;9.38;;;;;;;;;;5026523;28;20061;-50
2024/02/24 05:16:46;;;;;;;12.07;9.50;;;;;;;;;;5026310;28;20117;-51
2024/02/24 05:19:12;;;;;;;11.82;9.18;;;;;;;;;;5026290;28;20021;-47
2024/02/24 05:21:39;;;;;;;11.43;9.40;;;;;;;;;;5025899;28;20075;-49
2024/02/24 05:24:06;;;;;;;13.25;9.30;;;;;;;;;;5025910;28;20018;-52
2024/02/24 05:26:33;;;;;;;14.70;9.52;;;;;;;;;;5026463;28;20036;-51
2024/02/24 05:28:59;;;;;;;15.65;9.63;;;;;;;;;;5025799;28;20013;-46
2024/02/24 05:31:26;;;;;;;13.88;9.38;;;;;;;;;;5026255;28;20210;-51
2024/02/24 05:33:54;;;;;;;14.45;10.02;;;;;;;;;;5025691;28;20032;-46
2024/02/24 05:36:21;;;;;;;10.50;9.02;;;;;;;;;;5025936;28;20037;-53
2024/02/24 05:38:47;;;;;;;13.43;9.70;;;;;;;;;;5025485;28;20084;-43
2024/02/24 05:41:14;;;;;;;14.05;9.32;;;;;;;;;;5025856;28;20277;-49
2024/02/24 05:43:41;;;;;;;12.02;9.50;;;;;;;;;;5025589;28;20018;-46
2024/02/24 05:46:07;;;;;;;14.18;9.65;;;;;;;;;;5025786;28;20294;-48
2024/02/24 05:48:34;;;;;;;13.90;9.57;;;;;;;;;;5025627;28;20041;-51
2024/02/24 05:51:01;;;;;;;12.13;9.50;;;;;;;;;;5025457;28;20030;-53
2024/02/24 05:53:28;;;;;;;10.65;9.05;;;;;;;;;;5025502;28;20284;-50
2024/02/24 05:55:55;;;;;;;11.73;9.45;;;;;;;;;;5025797;28;20033;-44
2024/02/24 05:58:21;;;;;;;10.05;8.82;;;;;;;;;;5025543;28;20022;-50
2024/02/24 06:00:48;;;;;;;12.77;9.50;;;;;;;;;;5025681;28;20034;-48
2024/02/24 06:03:15;;;;;;;12.85;9.80;;;;;;;;;;5025809;28;20113;-48
2024/02/24 06:05:41;;;;;;;10.65;9.27;;;;;;;;;;5025407;28;20092;-48
2024/02/24 06:08:08;;;;;;;18.58;9.63;;;;;;;;;;5025429;28;20017;-52
2024/02/24 06:10:35;;;;;;;15.18;9.90;;;;;;;;;;5025931;28;20056;-43
2024/02/24 06:13:04;;;;;;;34.83;11.52;;;;;;;;;;5024448;28;20032;-46
2024/02/24 06:15:31;;;;;;;23.00;10.77;;;;;;;;;;5022716;28;20021;-45
2024/02/24 06:17:58;;;;;;;21.48;10.25;;;;;;;;;;5021734;28;20089;-50
2024/02/24 06:20:24;;;;;;;24.60;10.13;;;;;;;;;;5021191;28;20037;-50
2024/02/24 06:22:51;;;;;;;18.38;10.13;;;;;;;;;;5021204;28;20022;-46
2024/02/24 06:25:17;;;;;;;15.70;9.73;;;;;;;;;;5022841;28;20033;-50
2024/02/24 06:27:44;;;;;;;14.82;10.00;;;;;;;;;;5022739;28;20018;-46
2024/02/24 06:30:11;;;;;;;16.80;10.57;;;;;;;;;;5022875;28;20190;-49
2024/02/24 06:32:39;;;;;;;13.90;9.48;;;;;;;;;;5021928;28;20022;-56
2024/02/24 06:35:05;;;;;;;12.70;9.50;;;;;;;;;;5021768;28;20025;-50
2024/02/24 06:37:32;;;;;;;14.88;9.65;;;;;;;;;;5020462;28;20041;-47
2024/02/24 06:39:59;;;;;;;14.45;10.05;;;;;;;;;;5020506;28;20030;-48
2024/02/24 06:42:25;;;;;;;13.27;9.45;;;;;;;;;;5021193;28;20018;-49
2024/02/24 06:44:52;;;;;;;13.00;9.45;;;;;;;;;;5021163;28;20250;-48
2024/02/24 06:47:19;;;;;;;15.23;9.98;;;;;;;;;;5020380;28;20206;-51
2024/02/24 06:49:45;;;;;;;12.27;9.20;;;;;;;;;;5020631;28;20101;-47
2024/02/24 06:52:12;;;;;;;12.30;9.23;;;;;;;;;;5023208;28;20021;-49
2024/02/24 06:54:41;;;;;;;13.20;9.48;;;;;;;;;;5022953;28;20026;-50
2024/02/24 06:57:08;;;;;;;13.30;9.77;;;;;;;;;;5024587;28;20087;-47
2024/02/24 06:59:34;;;;;;;13.68;9.68;;;;;;;;;;5023673;28;20034;-50
2024/02/24 07:02:01;;;;;;;16.73;9.80;;;;;;;;;;5018525;28;20015;-44
2024/02/24 07:04:30;;;;;;;11.90;9.77;;;;;;;;;;5019916;28;20041;-45
2024/02/24 07:06:56;;;;;;;11.27;9.48;;;;;;;;;;5023734;28;20319;-50
2024/02/24 07:09:23;;;;;;;12.05;9.93;;;;;;;;;;5023787;28;20018;-46
2024/02/24 07:11:49;;;;;;;11.02;9.40;;;;;;;;;;5024018;28;20064;-43
2024/02/24 07:14:16;;;;;;;10.43;9.40;;;;;;;;;;5023377;28;20332;-46
2024/02/24 07:16:43;;;;;;;12.52;9.43;;;;;;;;;;5022755;28;20318;-51
2024/02/24 07:19:09;;;;;;;12.93;9.57;;;;;;;;;;5023918;28;20361;-45
2024/02/24 07:21:41;;;;;;;12.50;9.40;;;;;;;;;;5024199;28;20026;-47
2024/02/24 07:24:08;;;;;;;14.15;9.82;;;;;;;;;;5023730;28;20136;-54
2024/02/24 07:26:41;;;;;;;11.07;9.73;;;;;;;;;;5024390;28;20033;-53
2024/02/24 07:29:08;;;;;;;10.60;9.20;;;;;;;;;;4997234;28;20191;-47
2024/02/24 07:31:35;;;;;;;11.75;9.10;;;;;;;;;;5024484;28;20037;-53
2024/02/24 07:34:01;;;;;;;12.90;9.85;;;;;;;;;;5023788;28;20140;-45
2024/02/24 07:36:29;;;;;;;13.70;9.75;;;;;;;;;;5024195;28;20306;-52
2024/02/24 07:38:56;;;;;;;14.85;9.55;;;;;;;;;;5023613;28;20049;-47
2024/02/24 07:41:23;;;;;;;11.32;9.15;;;;;;;;;;5016357;28;20033;-47
2024/02/24 07:43:50;;;;;;;10.73;9.55;;;;;;;;;;5022429;28;20025;-46
2024/02/24 07:46:34;;;;;;;10.73;8.90;;;;;;;;;;5027553;28;20026;-47
2024/02/24 07:49:01;;;;;;;12.40;9.75;;;;;;;;;;5027382;28;20081;-47
2024/02/24 07:51:28;;;;;;;12.98;10.10;;;;;;;;;;5027089;28;20026;-44
2024/02/24 07:53:56;;;;;;;11.25;10.02;;;;;;;;;;5027617;28;20084;-44
2024/02/24 07:56:23;;;;;;;15.75;9.70;;;;;;;;;;5026313;28;20071;-51
2024/02/24 07:58:50;;;;;;;10.70;9.30;;;;;;;;;;5016853;28;20033;-46
2024/02/24 08:01:17;;;;;;;14.38;9.98;;;;;;;;;;5027499;28;20025;-44
2024/02/24 08:03:43;;;;;;;12.75;9.07;;;;;;;;;;5027035;28;20026;-51
2024/02/24 08:06:10;;;;;;;11.50;9.00;;;;;;;;;;5026794;28;20074;-52
2024/02/24 08:08:37;;;;;;;11.10;9.25;;;;;;;;;;5027076;28;20081;-52
2024/02/24 08:11:07;;;;;;;11.45;9.40;;;;;;;;;;5025270;28;20256;-50
2024/02/24 08:13:33;;;;;;;13.73;9.55;;;;;;;;;;5026760;28;20028;-44
2024/02/24 08:16:06;;;;;;;13.20;9.65;;;;;;;;;;5027312;28;20302;-48
2024/02/24 08:18:33;;;;;;;12.15;9.07;;;;;;;;;;5009376;28;20034;-47
2024/02/24 08:21:00;;;;;;;13.02;9.43;;;;;;;;;;5026892;28;20076;-53
2024/02/24 08:23:26;;;;;;;12.80;9.52;;;;;;;;;;5024470;28;20052;-51
2024/02/24 08:25:53;;;;;;;17.10;9.60;;;;;;;;;;5026994;28;20022;-49
2024/02/24 08:28:19;;;;;;;11.50;9.43;;;;;;;;;;5026475;28;20028;-53
2024/02/24 08:30:46;;;;;;;17.08;10.15;;;;;;;;;;5026916;28;20056;-53
2024/02/24 08:33:12;;;;;;;13.68;9.63;;;;;;;;;;5026614;28;20021;-53
2024/02/24 08:35:39;;;;;;;13.57;10.60;;;;;;;;;;5022962;28;20030;-57
2024/02/24 08:38:05;;;;;;;15.25;10.23;;;;;;;;;;5026812;28;20028;-45
2024/02/24 08:40:32;;;;;;;12.40;9.52;;;;;;;;;;5026905;28;20026;-52
2024/02/24 08:42:59;;;;;;;15.40;9.75;;;;;;;;;;5026493;28;20022;-50
2024/02/24 08:45:25;;;;;;;13.48;9.82;;;;;;;;;;5009292;28;20229;-54
2024/02/24 08:47:52;;;;;;;11.20;9.55;;;;;;;;;;5026314;28;20018;-53
2024/02/24 08:50:18;;;;;;;15.98;9.77;;;;;;;;;;5026409;28;20033;-53
2024/02/24 08:52:45;;;;;;;12.32;9.52;;;;;;;;;;5026226;28;20048;-52
2024/02/24 08:55:11;;;;;;;13.52;9.57;;;;;;;;;;5025627;28;20049;-51
2024/02/24 08:57:38;;;;;;;11.77;9.38;;;;;;;;;;5025978;28;20025;-48
2024/02/24 09:00:05;;;;;;;14.98;9.15;;;;;;;;;;5026200;28;20037;-52
2024/02/24 09:02:31;;;;;;;14.60;9.63;;;;;;;;;;5014765;28;20022;-49
2024/02/24 09:04:58;;;;;;;19.02;9.52;;;;;;;;;;5025087;28;20061;-50
2024/02/24 09:07:25;;;;;;;16.02;9.88;;;;;;;;;;5025795;28;20048;-50
2024/02/24 09:09:51;;;;;;;15.60;9.70;;;;;;;;;;5025968;28;20029;-50
2024/02/24 09:12:18;;;;;;;13.18;9.77;;;;;;;;;;5025751;28;20037;-50
2024/02/24 09:14:45;;;;;;;15.27;9.85;;;;;;;;;;5015868;28;20352;-54
2024/02/24 09:17:11;;;;;;;12.07;9.32;;;;;;;;;;5006257;28;20029;-55
2024/02/24 09:19:38;;;;;;;11.60;9.43;;;;;;;;;;5022576;28;20040;-52
2024/02/24 09:22:04;;;;;;;12.93;9.15;;;;;;;;;;5025562;28;20022;-55
2024/02/24 09:24:31;;;;;;;11.57;9.30;;;;;;;;;;5025710;28;20014;-48
2024/02/24 09:26:58;;;;;;;12.55;9.20;;;;;;;;;;5025023;28;20218;-52
2024/02/24 09:29:24;;;;;;;12.45;9.82;;;;;;;;;;5025348;28;20014;-48
2024/02/24 09:31:51;;;;;;;14.10;9.25;;;;;;;;;;5025602;28;20024;-53
2024/02/24 09:34:18;;;;;;;13.15;9.70;;;;;;;;;;5025320;28;20357;-49
2024/02/24 09:36:45;;;;;;;12.43;9.55;;;;;;;;;;5025183;28;20025;-49
2024/02/24 09:39:13;;;;;;;13.20;9.95;;;;;;;;;;5023775;28;20021;-45
2024/02/24 09:41:40;;;;;;;10.73;9.63;;;;;;;;;;5024825;28;20034;-49
2024/02/24 09:44:07;;;;;;;15.10;10.07;;;;;;;;;;5025073;28;20014;-48
2024/02/24 09:46:34;;;;;;;10.85;9.57;;;;;;;;;;5025684;28;20049;-51
2024/02/24 09:49:01;;;;;;;14.55;10.20;;;;;;;;;;5025252;28;20018;-54
2024/02/24 09:51:28;;;;;;;14.23;10.15;;;;;;;;;;5025394;28;20029;-51
2024/02/24 09:53:54;;;;;;;12.95;10.23;;;;;;;;;;5023108;28;20026;-47
2024/02/24 09:56:24;;;;;;;13.90;10.68;;;;;;;;;;5025604;28;20084;-49
2024/02/24 09:58:54;;;;;;;11.65;10.23;;;;;;;;;;5024818;28;20018;-55
2024/02/24 10:01:20;;;;;;;11.38;9.95;;;;;;;;;;5025261;28;20371;-45
2024/02/24 10:03:48;;;;;;;17.30;10.43;;;;;;;;;;5024825;28;20018;-50
2024/02/24 10:06:16;;;;;;;12.90;10.10;;;;;;;;;;5015829;28;20046;-53
2024/02/24 10:08:47;;;;;;;13.30;10.18;;;;;;;;;;5024400;28;20046;-43
2024/02/24 10:11:14;;;;;;;17.60;10.32;;;;;;;;;;5025098;28;20249;-48
2024/02/24 10:13:40;;;;;;;15.07;10.93;;;;;;;;;;5024806;28;20226;-45
2024/02/24 10:16:08;;;;;;;17.90;11.18;;;;;;;;;;5025161;28;20028;-47
2024/02/24 10:18:34;;;;;;;18.45;11.18;;;;;;;;;;5020055;28;20033;-53
2024/02/24 10:21:01;;;;;;;14.82;11.48;;;;;;;;;;5024436;28;20025;-46
2024/02/24 10:23:28;;;;;;;17.00;11.50;;;;;;;;;;5024667;28;20018;-52
2024/02/24 10:25:57;;;;;;;16.55;11.50;;;;;;;;;;5007413;28;20076;-44
2024/02/24 10:28:25;;;;;;;14.43;11.45;;;;;;;;;;5024882;28;20222;-49
2024/02/24 10:30:51;;;;;;;14.43;11.35;;;;;;;;;;5017336;28;20029;-52
2024/02/24 10:33:18;;;;;;;16.77;11.80;;;;;;;;;;5004784;28;20267;-51
2024/02/24 10:35:45;;;;;;;15.50;11.60;;;;;;;;;;5020822;28;20029;-47
2024/02/24 10:38:13;;;;;;;18.05;11.48;;;;;;;;;;5024463;28;20085;-51
2024/02/24 10:40:41;;;;;;;18.88;11.93;;;;;;;;;;5024535;28;20030;-50
2024/02/24 10:43:08;;;;;;;23.08;11.82;;;;;;;;;;5024547;28;20025;-53
2024/02/24 10:45:35;;;;;;;14.57;11.00;;;;;;;;;;5005672;28;20018;-49
2024/02/24 10:48:01;;;;;;;16.92;11.35;;;;;;;;;;5005926;28;20078;-47
2024/02/24 10:50:28;;;;;;;20.50;11.57;;;;;;;;;;5024662;28;20041;-51
2024/02/24 10:52:55;;;;;;;16.02;11.35;;;;;;;;;;5024263;28;20068;-44
2024/02/24 10:55:23;;;;;;;19.52;10.68;;;;;;;;;;5024421;28;20026;-49
2024/02/24 10:57:53;;;;;;;15.48;10.55;;;;;;;;;;5024013;28;20022;-44
2024/02/24 11:00:31;;;;;;;17.52;10.65;;;;;;;;;;5024343;28;20041;-45
2024/02/24 11:03:01;;;;;;;21.30;11.60;;;;;;;;;;5021712;28;20018;-50
2024/02/24 11:05:30;;;;;;;19.08;10.90;;;;;;;;;;5023796;28;20081;-60
2024/02/24 11:07:57;;;;;;;17.85;10.95;;;;;;;;;;5024033;28;20033;-51
2024/02/24 11:10:31;;;;;;;17.45;10.80;;;;;;;;;;5024007;28;20022;-55
2024/02/24 11:13:00;;;;;;;13.80;10.88;;;;;;;;;;5006686;28;20029;-55
2024/02/24 11:15:28;;;;;;;17.33;11.07;;;;;;;;;;5023897;28;20136;-49
2024/02/24 11:17:58;;;;;;;13.32;10.00;;;;;;;;;;5024057;28;20277;-49
2024/02/24 11:20:42;;;;;;;13.77;10.45;;;;;;;;;;5027738;28;20052;-43
2024/02/24 11:23:22;;;;;;;16.88;10.80;;;;;;;;;;5017747;28;20093;-45
2024/02/24 11:25:49;;;;;;;17.35;10.35;;;;;;;;;;5018951;28;20362;-45
2024/02/24 11:28:22;;;;;;;20.30;10.57;;;;;;;;;;5019227;28;20324;-48
2024/02/24 11:30:54;;;;;;;17.25;10.25;;;;;;;;;;5028189;28;20030;-43
2024/02/24 11:33:22;;;;;;;18.85;10.95;;;;;;;;;;5027709;28;20022;-45
2024/02/24 11:35:50;;;;;;;14.38;10.63;;;;;;;;;;5027917;28;20030;-43
2024/02/24 11:38:19;;;;;;;19.98;10.98;;;;;;;;;;5027586;28;20022;-44
2024/02/24 11:40:49;;;;;;;16.75;10.45;;;;;;;;;;5014502;28;20030;-47
2024/02/24 11:43:16;;;;;;;14.57;10.30;;;;;;;;;;5018411;28;20314;-53
2024/02/24 11:45:49;;;;;;;19.30;10.55;;;;;;;;;;5027857;28;20025;-45
2024/02/24 11:48:16;;;;;;;13.18;9.57;;;;;;;;;;5027410;28;20018;-51
2024/02/24 11:50:43;;;;;;;20.52;10.55;;;;;;;;;;5027128;28;20037;-45
2024/02/24 11:53:10;;;;;;;25.27;11.02;;;;;;;;;;5026982;28;20148;-55
2024/02/24 11:55:37;;;;;;;15.85;9.70;;;;;;;;;;5027442;28;20111;-53
2024/02/24 11:58:07;;;;;;;17.73;9.90;;;;;;;;;;5027360;28;20025;-53
2024/02/24 12:00:40;;;;;;;15.45;10.20;;;;;;;;;;5026788;28;20033;-45
2024/02/24 12:03:11;;;;;;;15.73;11.18;;;;;;;;;;5027104;28;20022;-46
2024/02/24 12:05:38;;;;;;;16.58;10.30;;;;;;;;;;5022218;28;20354;-56
2024/02/24 12:08:06;;;;;;;18.27;10.77;;;;;;;;;;5027115;28;20314;-45
2024/02/24 12:10:39;;;;;;;21.33;10.90;;;;;;;;;;5027394;28;20036;-46
2024/02/24 12:13:08;;;;;;;20.08;11.52;;;;;;;;;;5027102;28;20022;-49
2024/02/24 12:15:35;;;;;;;21.08;11.38;;;;;;;;;;5027136;28;20290;-54
2024/02/24 12:18:05;;;;;;;21.67;11.68;;;;;;;;;;5022147;28;20021;-49
2024/02/24 12:20:33;;;;;;;19.75;11.15;;;;;;;;;;5027072;28;20333;-52
2024/02/24 12:23:06;;;;;;;24.13;11.63;;;;;;;;;;5026758;28;20067;-47
2024/02/24 12:25:33;;;;;;;16.73;10.73;;;;;;;;;;5027156;28;20053;-53
2024/02/24 12:27:59;;;;;;;19.65;10.85;;;;;;;;;;5026789;28;20080;-51
2024/02/24 12:30:27;;;;;;;23.10;11.23;;;;;;;;;;5025142;28;20030;-47
2024/02/24 12:32:54;;;;;;;18.13;10.52;;;;;;;;;;5021056;28;20061;-45
2024/02/24 12:35:24;;;;;;;20.75;10.48;;;;;;;;;;5026703;28;20026;-48
2024/02/24 12:37:55;;;;;;;19.42;10.65;;;;;;;;;;5025842;28;20033;-45
2024/02/24 12:40:34;;;;;;;17.00;10.68;;;;;;;;;;5025806;28;20037;-46
2024/02/24 12:43:01;;;;;;;20.30;10.90;;;;;;;;;;5017992;28;20024;-49
2024/02/24 12:45:28;;;;;;;28.30;11.10;;;;;;;;;;5026666;28;20325;-52
2024/02/24 12:47:55;;;;;;;29.30;10.48;;;;;;;;;;5026400;28;20025;-47
2024/02/24 12:50:22;;;;;;;25.88;10.73;;;;;;;;;;5024962;28;20030;-50
2024/02/24 12:52:49;;;;;;;16.60;10.23;;;;;;;;;;5025743;28;20328;-46
2024/02/24 12:55:16;;;;;;;22.35;10.68;;;;;;;;;;5026370;28;20038;-48
2024/02/24 12:57:43;;;;;;;20.55;10.07;;;;;;;;;;5025258;28;20021;-51
2024/02/24 13:00:10;;;;;;;20.50;10.20;;;;;;;;;;5025613;28;20306;-49
2024/02/24 13:02:37;;;;;;;23.92;10.52;;;;;;;;;;5025895;28;20026;-48
2024/02/24 13:05:04;;;;;;;20.20;11.27;;;;;;;;;;5025781;28;20118;-45
2024/02/24 13:07:31;;;;;;;19.77;10.52;;;;;;;;;;5025173;28;20045;-46
2024/02/24 13:09:58;;;;;;;19.75;10.43;;;;;;;;;;5026117;28;20030;-46
2024/02/24 13:12:24;;;;;;;18.67;10.43;;;;;;;;;;5025828;28;20097;-51
2024/02/24 13:14:51;;;;;;;20.40;10.32;;;;;;;;;;5025175;28;20025;-52
2024/02/24 13:17:20;;;;;;;23.45;11.45;;;;;;;;;;5025835;28;20076;-53
2024/02/24 13:19:46;;;;;;;15.43;10.73;;;;;;;;;;5024692;28;20104;-50
2024/02/24 13:22:13;;;;;;;18.85;10.27;;;;;;;;;;5025824;28;20022;-52
2024/02/24 13:24:40;;;;;;;18.52;10.82;;;;;;;;;;5025738;28;20084;-49
2024/02/24 13:27:06;;;;;;;17.20;10.52;;;;;;;;;;5025503;28;20018;-49
2024/02/24 13:29:33;;;;;;;17.77;11.07;;;;;;;;;;5025666;28;20018;-51
2024/02/24 13:31:59;;;;;;;22.95;10.85;;;;;;;;;;5025622;28;20029;-61
2024/02/24 13:34:26;;;;;;;19.95;10.55;;;;;;;;;;5025292;28;20017;-50
2024/02/24 13:36:52;;;;;;;15.00;10.35;;;;;;;;;;5025433;28;20017;-52
2024/02/24 13:39:19;;;;;;;16.20;10.73;;;;;;;;;;5022571;28;21421;-48
2024/02/24 13:41:46;;;;;;;18.52;9.93;;;;;;;;;;5010541;28;20065;-47
2024/02/24 13:44:12;;;;;;;21.13;10.35;;;;;;;;;;5005660;28;20019;-53
2024/02/24 13:46:42;;;;;;;13.57;10.10;;;;;;;;;;5021447;28;20103;-52
2024/02/24 13:49:11;;;;;;;18.00;9.98;;;;;;;;;;5024570;28;20384;-50
2024/02/24 13:51:38;;;;;;;17.38;10.13;;;;;;;;;;5024749;28;20038;-53
2024/02/24 13:54:05;;;;;;;20.38;10.38;;;;;;;;;;5025183;28;20020;-56
2024/02/24 13:56:32;;;;;;;16.42;9.75;;;;;;;;;;5025448;28;20029;-51
2024/02/24 13:59:01;;;;;;;18.02;10.25;;;;;;;;;;5022456;28;20088;-54
2024/02/24 14:01:28;;;;;;;14.88;9.57;;;;;;;;;;5023387;28;20026;-48
2024/02/24 14:03:54;;;;;;;15.48;9.88;;;;;;;;;;5023085;28;20033;-54
2024/02/24 14:06:21;;;;;;;13.90;9.23;;;;;;;;;;5023194;28;20360;-50
2024/02/24 14:08:48;;;;;;;13.23;9.23;;;;;;;;;;5023507;28;20030;-53
2024/02/24 14:11:14;;;;;;;12.57;9.50;;;;;;;;;;5022582;28;20057;-51
2024/02/24 14:13:41;;;;;;;12.75;9.30;;;;;;;;;;5023393;28;20049;-50
2024/02/24 14:16:07;;;;;;;11.65;9.73;;;;;;;;;;5025110;28;20025;-54
2024/02/24 14:18:35;;;;;;;11.27;9.00;;;;;;;;;;5024632;28;20080;-54
2024/02/24 14:21:02;;;;;;;11.65;9.35;;;;;;;;;;5024518;28;20045;-53
2024/02/24 14:23:29;;;;;;;13.00;9.55;;;;;;;;;;5024691;28;20033;-57